sensor_id;sensor_type;location;lat;lon;timestamp;P1;durP1;ratioP1;P2;durP2;ratioP2
61391;SDS011;47261;52.892;5.738;2023-08-24T00:00:11;15.37;;;7.47;;
61391;SDS011;47261;52.892;5.738;2023-08-24T00:02:37;19.25;;;8.82;;
61391;SDS011;47261;52.892;5.738;2023-08-24T00:05:03;17.37;;;6.60;;
61391;SDS011;47261;52.892;5.738;2023-08-24T00:07:29;24.08;;;10.10;;
61391;SDS011;47261;52.892;5.738;2023-08-24T00:09:55;25.67;;;10.88;;
61391;SDS011;47261;52.892;5.738;2023-08-24T00:12:20;18.97;;;10.07;;
61391;SDS011;47261;52.892;5.738;2023-08-24T00:14:46;22.93;;;10.87;;
61391;SDS011;47261;52.892;5.738;2023-08-24T00:17:12;22.75;;;10.23;;
61391;SDS011;47261;52.892;5.738;2023-08-24T00:19:37;25.57;;;11.10;;
61391;SDS011;47261;52.892;5.738;2023-08-24T00:22:03;27.58;;;11.07;;
61391;SDS011;47261;52.892;5.738;2023-08-24T00:24:29;21.43;;;11.03;;
61391;SDS011;47261;52.892;5.738;2023-08-24T00:26:55;28.13;;;12.45;;
61391;SDS011;47261;52.892;5.738;2023-08-24T00:29:20;25.00;;;12.00;;
61391;SDS011;47261;52.892;5.738;2023-08-24T00:31:47;22.33;;;11.17;;
61391;SDS011;47261;52.892;5.738;2023-08-24T00:34:12;24.98;;;10.75;;
61391;SDS011;47261;52.892;5.738;2023-08-24T00:36:38;25.13;;;10.25;;
61391;SDS011;47261;52.892;5.738;2023-08-24T00:39:04;21.90;;;9.97;;
61391;SDS011;47261;52.892;5.738;2023-08-24T00:41:30;21.90;;;9.63;;
61391;SDS011;47261;52.892;5.738;2023-08-24T00:43:55;19.13;;;10.20;;
61391;SDS011;47261;52.892;5.738;2023-08-24T00:46:21;20.90;;;10.63;;
61391;SDS011;47261;52.892;5.738;2023-08-24T00:48:47;23.10;;;10.27;;
61391;SDS011;47261;52.892;5.738;2023-08-24T00:51:14;22.80;;;10.70;;
61391;SDS011;47261;52.892;5.738;2023-08-24T00:53:40;22.92;;;9.90;;
61391;SDS011;47261;52.892;5.738;2023-08-24T00:56:05;24.73;;;9.60;;
61391;SDS011;47261;52.892;5.738;2023-08-24T00:58:31;19.13;;;9.97;;
61391;SDS011;47261;52.892;5.738;2023-08-24T01:00:58;20.45;;;10.35;;
61391;SDS011;47261;52.892;5.738;2023-08-24T01:03:24;25.30;;;9.85;;
61391;SDS011;47261;52.892;5.738;2023-08-24T01:05:50;20.58;;;9.50;;
61391;SDS011;47261;52.892;5.738;2023-08-24T01:08:16;18.40;;;8.80;;
61391;SDS011;47261;52.892;5.738;2023-08-24T01:10:57;23.20;;;10.38;;
61391;SDS011;47261;52.892;5.738;2023-08-24T01:13:36;21.40;;;9.88;;
61391;SDS011;47261;52.892;5.738;2023-08-24T01:16:15;16.17;;;9.40;;
61391;SDS011;47261;52.892;5.738;2023-08-24T01:18:44;25.10;;;9.90;;
61391;SDS011;47261;52.892;5.738;2023-08-24T01:21:11;19.15;;;10.05;;
61391;SDS011;47261;52.892;5.738;2023-08-24T01:26:11;23.95;;;9.80;;
61391;SDS011;47261;52.892;5.738;2023-08-24T01:28:42;19.15;;;9.48;;
61391;SDS011;47261;52.892;5.738;2023-08-24T01:31:09;22.63;;;10.17;;
61391;SDS011;47261;52.892;5.738;2023-08-24T01:33:35;19.15;;;9.93;;
61391;SDS011;47261;52.892;5.738;2023-08-24T01:36:01;17.58;;;8.88;;
61391;SDS011;47261;52.892;5.738;2023-08-24T01:38:27;17.20;;;9.30;;
61391;SDS011;47261;52.892;5.738;2023-08-24T01:40:55;17.53;;;9.30;;
61391;SDS011;47261;52.892;5.738;2023-08-24T01:43:33;18.55;;;9.23;;
61391;SDS011;47261;52.892;5.738;2023-08-24T01:46:05;18.15;;;8.48;;
61391;SDS011;47261;52.892;5.738;2023-08-24T01:48:32;20.02;;;8.10;;
61391;SDS011;47261;52.892;5.738;2023-08-24T01:50:58;17.52;;;8.80;;
61391;SDS011;47261;52.892;5.738;2023-08-24T01:53:26;18.60;;;8.30;;
61391;SDS011;47261;52.892;5.738;2023-08-24T01:55:53;19.58;;;8.73;;
61391;SDS011;47261;52.892;5.738;2023-08-24T01:58:19;16.98;;;9.23;;
61391;SDS011;47261;52.892;5.738;2023-08-24T02:00:45;16.23;;;9.20;;
61391;SDS011;47261;52.892;5.738;2023-08-24T02:03:11;21.00;;;9.02;;
61391;SDS011;47261;52.892;5.738;2023-08-24T02:05:36;21.23;;;9.60;;
61391;SDS011;47261;52.892;5.738;2023-08-24T02:08:02;17.10;;;8.98;;
61391;SDS011;47261;52.892;5.738;2023-08-24T02:10:28;22.77;;;9.10;;
61391;SDS011;47261;52.892;5.738;2023-08-24T02:12:54;21.00;;;8.67;;
61391;SDS011;47261;52.892;5.738;2023-08-24T02:15:19;23.80;;;10.35;;
61391;SDS011;47261;52.892;5.738;2023-08-24T02:17:45;22.43;;;9.37;;
61391;SDS011;47261;52.892;5.738;2023-08-24T02:20:11;19.30;;;8.57;;
61391;SDS011;47261;52.892;5.738;2023-08-24T02:22:37;14.20;;;7.43;;
61391;SDS011;47261;52.892;5.738;2023-08-24T02:25:04;15.80;;;7.53;;
61391;SDS011;47261;52.892;5.738;2023-08-24T02:27:31;14.85;;;7.38;;
61391;SDS011;47261;52.892;5.738;2023-08-24T02:29:57;13.03;;;7.03;;
61391;SDS011;47261;52.892;5.738;2023-08-24T02:32:22;17.90;;;7.22;;
61391;SDS011;47261;52.892;5.738;2023-08-24T02:34:48;16.50;;;6.77;;
61391;SDS011;47261;52.892;5.738;2023-08-24T02:37:14;16.98;;;6.60;;
61391;SDS011;47261;52.892;5.738;2023-08-24T02:39:39;15.20;;;6.93;;
61391;SDS011;47261;52.892;5.738;2023-08-24T02:42:05;14.00;;;6.30;;
61391;SDS011;47261;52.892;5.738;2023-08-24T02:44:31;12.87;;;5.53;;
61391;SDS011;47261;52.892;5.738;2023-08-24T02:46:57;11.77;;;4.82;;
61391;SDS011;47261;52.892;5.738;2023-08-24T02:49:22;9.10;;;4.83;;
61391;SDS011;47261;52.892;5.738;2023-08-24T02:51:48;12.10;;;5.55;;
61391;SDS011;47261;52.892;5.738;2023-08-24T02:54:14;12.60;;;5.68;;
61391;SDS011;47261;52.892;5.738;2023-08-24T02:56:40;11.17;;;5.00;;
61391;SDS011;47261;52.892;5.738;2023-08-24T02:59:05;12.50;;;4.77;;
61391;SDS011;47261;52.892;5.738;2023-08-24T03:01:31;12.77;;;4.60;;
61391;SDS011;47261;52.892;5.738;2023-08-24T03:03:57;12.90;;;4.82;;
61391;SDS011;47261;52.892;5.738;2023-08-24T03:06:23;9.83;;;4.33;;
61391;SDS011;47261;52.892;5.738;2023-08-24T03:08:49;11.55;;;4.60;;
61391;SDS011;47261;52.892;5.738;2023-08-24T03:11:15;13.60;;;5.45;;
61391;SDS011;47261;52.892;5.738;2023-08-24T03:13:40;13.63;;;5.30;;
61391;SDS011;47261;52.892;5.738;2023-08-24T03:16:08;12.57;;;6.07;;
61391;SDS011;47261;52.892;5.738;2023-08-24T03:18:34;14.00;;;5.37;;
61391;SDS011;47261;52.892;5.738;2023-08-24T03:21:00;16.33;;;5.53;;
61391;SDS011;47261;52.892;5.738;2023-08-24T03:23:26;12.57;;;5.35;;
61391;SDS011;47261;52.892;5.738;2023-08-24T03:25:52;11.30;;;5.80;;
61391;SDS011;47261;52.892;5.738;2023-08-24T03:28:17;12.05;;;5.53;;
61391;SDS011;47261;52.892;5.738;2023-08-24T03:30:48;12.27;;;5.10;;
61391;SDS011;47261;52.892;5.738;2023-08-24T03:33:15;12.93;;;5.00;;
61391;SDS011;47261;52.892;5.738;2023-08-24T03:35:41;11.52;;;5.18;;
61391;SDS011;47261;52.892;5.738;2023-08-24T03:38:06;12.55;;;5.57;;
61391;SDS011;47261;52.892;5.738;2023-08-24T03:40:32;13.33;;;5.10;;
61391;SDS011;47261;52.892;5.738;2023-08-24T03:42:58;9.77;;;4.65;;
61391;SDS011;47261;52.892;5.738;2023-08-24T03:45:24;11.20;;;4.40;;
61391;SDS011;47261;52.892;5.738;2023-08-24T03:47:49;10.25;;;4.32;;
61391;SDS011;47261;52.892;5.738;2023-08-24T03:50:15;14.80;;;5.37;;
61391;SDS011;47261;52.892;5.738;2023-08-24T03:52:41;14.90;;;5.05;;
61391;SDS011;47261;52.892;5.738;2023-08-24T03:55:07;14.27;;;4.88;;
61391;SDS011;47261;52.892;5.738;2023-08-24T03:57:33;12.27;;;4.47;;
61391;SDS011;47261;52.892;5.738;2023-08-24T03:59:59;11.50;;;4.45;;
61391;SDS011;47261;52.892;5.738;2023-08-24T04:02:25;14.15;;;5.28;;
61391;SDS011;47261;52.892;5.738;2023-08-24T04:04:52;10.68;;;4.70;;
61391;SDS011;47261;52.892;5.738;2023-08-24T04:07:17;11.93;;;5.43;;
61391;SDS011;47261;52.892;5.738;2023-08-24T04:09:43;10.45;;;4.78;;
61391;SDS011;47261;52.892;5.738;2023-08-24T04:12:10;13.40;;;5.75;;
61391;SDS011;47261;52.892;5.738;2023-08-24T04:14:36;10.00;;;4.93;;
61391;SDS011;47261;52.892;5.738;2023-08-24T04:17:02;12.77;;;5.60;;
61391;SDS011;47261;52.892;5.738;2023-08-24T04:19:28;14.18;;;5.85;;
61391;SDS011;47261;52.892;5.738;2023-08-24T04:21:54;17.57;;;5.83;;
61391;SDS011;47261;52.892;5.738;2023-08-24T04:24:19;15.50;;;5.93;;
61391;SDS011;47261;52.892;5.738;2023-08-24T04:26:45;11.97;;;5.90;;
61391;SDS011;47261;52.892;5.738;2023-08-24T04:29:11;19.08;;;5.90;;
61391;SDS011;47261;52.892;5.738;2023-08-24T04:31:37;20.67;;;5.80;;
61391;SDS011;47261;52.892;5.738;2023-08-24T04:34:05;11.60;;;4.93;;
61391;SDS011;47261;52.892;5.738;2023-08-24T04:36:31;11.85;;;5.20;;
61391;SDS011;47261;52.892;5.738;2023-08-24T04:38:57;10.00;;;5.37;;
61391;SDS011;47261;52.892;5.738;2023-08-24T04:41:22;16.35;;;6.00;;
61391;SDS011;47261;52.892;5.738;2023-08-24T04:43:48;12.63;;;6.37;;
61391;SDS011;47261;52.892;5.738;2023-08-24T04:46:14;14.70;;;5.82;;
61391;SDS011;47261;52.892;5.738;2023-08-24T04:48:39;13.57;;;5.80;;
61391;SDS011;47261;52.892;5.738;2023-08-24T04:51:05;15.95;;;5.70;;
61391;SDS011;47261;52.892;5.738;2023-08-24T04:53:31;14.90;;;6.13;;
61391;SDS011;47261;52.892;5.738;2023-08-24T04:55:57;14.98;;;5.75;;
61391;SDS011;47261;52.892;5.738;2023-08-24T04:58:22;15.03;;;5.97;;
61391;SDS011;47261;52.892;5.738;2023-08-24T05:00:49;14.35;;;5.70;;
61391;SDS011;47261;52.892;5.738;2023-08-24T05:03:15;13.00;;;6.35;;
61391;SDS011;47261;52.892;5.738;2023-08-24T05:05:41;15.53;;;6.13;;
61391;SDS011;47261;52.892;5.738;2023-08-24T05:08:07;17.63;;;6.63;;
61391;SDS011;47261;52.892;5.738;2023-08-24T05:10:35;15.43;;;7.28;;
61391;SDS011;47261;52.892;5.738;2023-08-24T05:13:01;16.58;;;6.45;;
61391;SDS011;47261;52.892;5.738;2023-08-24T05:15:27;12.57;;;6.07;;
61391;SDS011;47261;52.892;5.738;2023-08-24T05:17:53;16.92;;;6.97;;
61391;SDS011;47261;52.892;5.738;2023-08-24T05:20:20;12.30;;;5.82;;
61391;SDS011;47261;52.892;5.738;2023-08-24T05:22:46;12.50;;;6.07;;
61391;SDS011;47261;52.892;5.738;2023-08-24T05:25:12;14.13;;;6.23;;
61391;SDS011;47261;52.892;5.738;2023-08-24T05:27:38;13.20;;;6.82;;
61391;SDS011;47261;52.892;5.738;2023-08-24T05:30:04;13.00;;;6.00;;
61391;SDS011;47261;52.892;5.738;2023-08-24T05:32:31;13.57;;;6.27;;
61391;SDS011;47261;52.892;5.738;2023-08-24T05:34:56;14.68;;;6.38;;
61391;SDS011;47261;52.892;5.738;2023-08-24T05:37:23;11.67;;;6.40;;
61391;SDS011;47261;52.892;5.738;2023-08-24T05:39:49;12.77;;;5.68;;
61391;SDS011;47261;52.892;5.738;2023-08-24T05:42:14;13.00;;;6.53;;
61391;SDS011;47261;52.892;5.738;2023-08-24T05:44:40;13.30;;;5.93;;
61391;SDS011;47261;52.892;5.738;2023-08-24T05:47:06;13.30;;;5.88;;
61391;SDS011;47261;52.892;5.738;2023-08-24T05:49:32;13.13;;;5.67;;
61391;SDS011;47261;52.892;5.738;2023-08-24T05:51:57;10.35;;;4.50;;
61391;SDS011;47261;52.892;5.738;2023-08-24T05:54:23;11.67;;;4.90;;
61391;SDS011;47261;52.892;5.738;2023-08-24T05:56:49;13.70;;;5.40;;
61391;SDS011;47261;52.892;5.738;2023-08-24T05:59:14;10.40;;;4.80;;
61391;SDS011;47261;52.892;5.738;2023-08-24T06:01:40;11.18;;;5.13;;
61391;SDS011;47261;52.892;5.738;2023-08-24T06:04:09;10.67;;;4.80;;
61391;SDS011;47261;52.892;5.738;2023-08-24T06:06:35;9.65;;;4.30;;
61391;SDS011;47261;52.892;5.738;2023-08-24T06:09:01;15.13;;;4.57;;
61391;SDS011;47261;52.892;5.738;2023-08-24T06:11:30;11.35;;;4.32;;
61391;SDS011;47261;52.892;5.738;2023-08-24T06:13:57;12.15;;;4.10;;
61391;SDS011;47261;52.892;5.738;2023-08-24T06:16:22;10.63;;;4.60;;
61391;SDS011;47261;52.892;5.738;2023-08-24T06:18:48;12.48;;;4.43;;
61391;SDS011;47261;52.892;5.738;2023-08-24T06:21:15;8.67;;;4.30;;
61391;SDS011;47261;52.892;5.738;2023-08-24T06:23:41;7.82;;;4.00;;
61391;SDS011;47261;52.892;5.738;2023-08-24T06:26:06;9.25;;;4.22;;
61391;SDS011;47261;52.892;5.738;2023-08-24T06:28:32;10.87;;;3.90;;
61391;SDS011;47261;52.892;5.738;2023-08-24T06:30:59;8.38;;;3.60;;
61391;SDS011;47261;52.892;5.738;2023-08-24T06:33:28;9.83;;;3.40;;
61391;SDS011;47261;52.892;5.738;2023-08-24T06:35:58;10.60;;;4.45;;
61391;SDS011;47261;52.892;5.738;2023-08-24T06:38:23;18.63;;;5.32;;
61391;SDS011;47261;52.892;5.738;2023-08-24T06:40:50;9.70;;;4.47;;
61391;SDS011;47261;52.892;5.738;2023-08-24T06:43:15;8.20;;;4.03;;
61391;SDS011;47261;52.892;5.738;2023-08-24T06:45:41;12.40;;;3.87;;
61391;SDS011;47261;52.892;5.738;2023-08-24T06:48:06;11.35;;;4.40;;
61391;SDS011;47261;52.892;5.738;2023-08-24T06:50:33;11.43;;;4.50;;
61391;SDS011;47261;52.892;5.738;2023-08-24T06:52:59;8.85;;;4.10;;
61391;SDS011;47261;52.892;5.738;2023-08-24T06:55:25;8.65;;;4.00;;
61391;SDS011;47261;52.892;5.738;2023-08-24T06:57:51;8.07;;;3.60;;
61391;SDS011;47261;52.892;5.738;2023-08-24T07:00:17;10.00;;;3.10;;
61391;SDS011;47261;52.892;5.738;2023-08-24T07:02:47;9.60;;;3.78;;
61391;SDS011;47261;52.892;5.738;2023-08-24T07:05:13;10.40;;;3.80;;
61391;SDS011;47261;52.892;5.738;2023-08-24T07:07:39;10.83;;;4.07;;
61391;SDS011;47261;52.892;5.738;2023-08-24T07:10:08;12.10;;;4.05;;
61391;SDS011;47261;52.892;5.738;2023-08-24T07:12:34;8.35;;;3.72;;
61391;SDS011;47261;52.892;5.738;2023-08-24T07:14:59;13.07;;;4.17;;
61391;SDS011;47261;52.892;5.738;2023-08-24T07:17:25;10.63;;;3.75;;
61391;SDS011;47261;52.892;5.738;2023-08-24T07:19:51;12.57;;;4.87;;
61391;SDS011;47261;52.892;5.738;2023-08-24T07:22:16;14.95;;;5.30;;
61391;SDS011;47261;52.892;5.738;2023-08-24T07:24:42;14.33;;;5.10;;
61391;SDS011;47261;52.892;5.738;2023-08-24T07:27:08;15.18;;;5.45;;
61391;SDS011;47261;52.892;5.738;2023-08-24T07:29:34;18.30;;;6.03;;
61391;SDS011;47261;52.892;5.738;2023-08-24T07:32:00;10.60;;;5.55;;
61391;SDS011;47261;52.892;5.738;2023-08-24T07:34:26;11.40;;;5.47;;
61391;SDS011;47261;52.892;5.738;2023-08-24T07:36:53;11.60;;;5.50;;
61391;SDS011;47261;52.892;5.738;2023-08-24T07:39:19;15.10;;;5.90;;
61391;SDS011;47261;52.892;5.738;2023-08-24T07:41:45;10.90;;;5.53;;
61391;SDS011;47261;52.892;5.738;2023-08-24T07:44:11;10.83;;;6.07;;
61391;SDS011;47261;52.892;5.738;2023-08-24T07:46:38;16.10;;;6.82;;
61391;SDS011;47261;52.892;5.738;2023-08-24T07:49:05;14.82;;;6.60;;
61391;SDS011;47261;52.892;5.738;2023-08-24T07:51:32;12.30;;;6.90;;
61391;SDS011;47261;52.892;5.738;2023-08-24T07:53:58;12.83;;;6.63;;
61391;SDS011;47261;52.892;5.738;2023-08-24T07:56:24;14.88;;;6.55;;
61391;SDS011;47261;52.892;5.738;2023-08-24T07:58:50;13.00;;;6.07;;
61391;SDS011;47261;52.892;5.738;2023-08-24T08:01:16;10.33;;;6.67;;
61391;SDS011;47261;52.892;5.738;2023-08-24T08:03:41;18.95;;;6.85;;
61391;SDS011;47261;52.892;5.738;2023-08-24T08:06:07;16.10;;;6.47;;
61391;SDS011;47261;52.892;5.738;2023-08-24T08:08:32;13.70;;;7.10;;
61391;SDS011;47261;52.892;5.738;2023-08-24T08:10:59;13.15;;;6.82;;
61391;SDS011;47261;52.892;5.738;2023-08-24T08:13:26;12.80;;;5.95;;
61391;SDS011;47261;52.892;5.738;2023-08-24T08:15:52;11.40;;;6.43;;
61391;SDS011;47261;52.892;5.738;2023-08-24T08:18:18;14.90;;;6.78;;
61391;SDS011;47261;52.892;5.738;2023-08-24T08:20:44;13.25;;;6.25;;
61391;SDS011;47261;52.892;5.738;2023-08-24T08:23:10;14.43;;;6.57;;
61391;SDS011;47261;52.892;5.738;2023-08-24T08:25:35;14.00;;;7.25;;
61391;SDS011;47261;52.892;5.738;2023-08-24T08:28:01;16.23;;;6.63;;
61391;SDS011;47261;52.892;5.738;2023-08-24T08:30:26;14.03;;;7.33;;
61391;SDS011;47261;52.892;5.738;2023-08-24T08:32:52;15.27;;;7.47;;
61391;SDS011;47261;52.892;5.738;2023-08-24T08:35:19;14.70;;;7.07;;
61391;SDS011;47261;52.892;5.738;2023-08-24T08:37:47;12.63;;;6.53;;
61391;SDS011;47261;52.892;5.738;2023-08-24T08:40:14;16.67;;;7.73;;
61391;SDS011;47261;52.892;5.738;2023-08-24T08:42:40;13.23;;;6.93;;
61391;SDS011;47261;52.892;5.738;2023-08-24T08:45:08;13.20;;;6.68;;
61391;SDS011;47261;52.892;5.738;2023-08-24T08:47:35;13.13;;;7.43;;
61391;SDS011;47261;52.892;5.738;2023-08-24T08:50:04;15.18;;;6.95;;
61391;SDS011;47261;52.892;5.738;2023-08-24T08:52:33;14.52;;;7.82;;
61391;SDS011;47261;52.892;5.738;2023-08-24T08:54:59;14.60;;;6.85;;
61391;SDS011;47261;52.892;5.738;2023-08-24T08:57:25;14.27;;;6.53;;
61391;SDS011;47261;52.892;5.738;2023-08-24T08:59:51;14.13;;;6.57;;
61391;SDS011;47261;52.892;5.738;2023-08-24T09:02:19;12.10;;;6.88;;
61391;SDS011;47261;52.892;5.738;2023-08-24T09:04:47;15.55;;;8.55;;
61391;SDS011;47261;52.892;5.738;2023-08-24T09:07:14;15.67;;;8.67;;
61391;SDS011;47261;52.892;5.738;2023-08-24T09:09:39;16.40;;;9.10;;
61391;SDS011;47261;52.892;5.738;2023-08-24T09:12:05;15.57;;;8.73;;
61391;SDS011;47261;52.892;5.738;2023-08-24T09:14:32;13.85;;;8.13;;
61391;SDS011;47261;52.892;5.738;2023-08-24T09:16:58;14.53;;;8.30;;
61391;SDS011;47261;52.892;5.738;2023-08-24T09:19:27;19.05;;;9.63;;
61391;SDS011;47261;52.892;5.738;2023-08-24T09:21:58;14.93;;;8.65;;
61391;SDS011;47261;52.892;5.738;2023-08-24T09:24:29;18.33;;;10.00;;
61391;SDS011;47261;52.892;5.738;2023-08-24T09:26:57;19.00;;;9.48;;
61391;SDS011;47261;52.892;5.738;2023-08-24T09:29:22;15.23;;;8.88;;
61391;SDS011;47261;52.892;5.738;2023-08-24T09:31:50;15.93;;;10.17;;
61391;SDS011;47261;52.892;5.738;2023-08-24T09:34:19;20.05;;;10.63;;
61391;SDS011;47261;52.892;5.738;2023-08-24T09:36:46;13.85;;;8.98;;
61391;SDS011;47261;52.892;5.738;2023-08-24T09:39:12;15.73;;;9.73;;
61391;SDS011;47261;52.892;5.738;2023-08-24T09:41:44;16.00;;;9.77;;
61391;SDS011;47261;52.892;5.738;2023-08-24T09:44:11;18.75;;;10.13;;
61391;SDS011;47261;52.892;5.738;2023-08-24T09:46:37;23.20;;;11.60;;
61391;SDS011;47261;52.892;5.738;2023-08-24T09:49:07;20.38;;;9.70;;
61391;SDS011;47261;52.892;5.738;2023-08-24T09:51:34;18.17;;;10.20;;
61391;SDS011;47261;52.892;5.738;2023-08-24T09:54:04;17.83;;;10.75;;
61391;SDS011;47261;52.892;5.738;2023-08-24T09:56:34;17.58;;;10.10;;
61391;SDS011;47261;52.892;5.738;2023-08-24T09:59:13;18.33;;;10.30;;
61391;SDS011;47261;52.892;5.738;2023-08-24T10:01:48;22.35;;;11.45;;
61391;SDS011;47261;52.892;5.738;2023-08-24T10:04:16;21.40;;;10.83;;
61391;SDS011;47261;52.892;5.738;2023-08-24T10:06:46;19.58;;;11.07;;
61391;SDS011;47261;52.892;5.738;2023-08-24T10:09:22;17.83;;;10.52;;
61391;SDS011;47261;52.892;5.738;2023-08-24T10:11:56;18.17;;;10.73;;
61391;SDS011;47261;52.892;5.738;2023-08-24T10:14:32;21.42;;;11.00;;
61391;SDS011;47261;52.892;5.738;2023-08-24T10:17:03;18.37;;;11.10;;
61391;SDS011;47261;52.892;5.738;2023-08-24T10:19:29;16.98;;;10.55;;
61391;SDS011;47261;52.892;5.738;2023-08-24T10:21:56;23.15;;;11.25;;
61391;SDS011;47261;52.892;5.738;2023-08-24T10:24:24;19.67;;;10.50;;
61391;SDS011;47261;52.892;5.738;2023-08-24T10:26:50;21.92;;;10.70;;
61391;SDS011;47261;52.892;5.738;2023-08-24T10:29:17;22.03;;;11.73;;
61391;SDS011;47261;52.892;5.738;2023-08-24T10:31:44;19.50;;;11.60;;
61391;SDS011;47261;52.892;5.738;2023-08-24T10:34:10;20.88;;;11.60;;
61391;SDS011;47261;52.892;5.738;2023-08-24T10:36:40;18.98;;;11.75;;
61391;SDS011;47261;52.892;5.738;2023-08-24T10:39:06;24.63;;;11.97;;
61391;SDS011;47261;52.892;5.738;2023-08-24T10:41:48;22.95;;;11.90;;
61391;SDS011;47261;52.892;5.738;2023-08-24T10:44:25;23.48;;;12.05;;
61391;SDS011;47261;52.892;5.738;2023-08-24T10:52:32;20.73;;;13.07;;
61391;SDS011;47261;52.892;5.738;2023-08-24T10:55:02;25.77;;;14.07;;
61391;SDS011;47261;52.892;5.738;2023-08-24T10:57:38;25.63;;;14.18;;
61391;SDS011;47261;52.892;5.738;2023-08-24T11:02:49;22.40;;;13.05;;
61391;SDS011;47261;52.892;5.738;2023-08-24T11:07:56;26.25;;;15.63;;
61391;SDS011;47261;52.892;5.738;2023-08-24T11:10:25;29.40;;;16.23;;
61391;SDS011;47261;52.892;5.738;2023-08-24T11:15:39;27.77;;;15.27;;
61391;SDS011;47261;52.892;5.738;2023-08-24T11:20:39;26.40;;;15.63;;
61391;SDS011;47261;52.892;5.738;2023-08-24T11:23:07;23.88;;;15.85;;
61391;SDS011;47261;52.892;5.738;2023-08-24T11:25:37;29.37;;;16.03;;
61391;SDS011;47261;52.892;5.738;2023-08-24T11:28:03;27.38;;;15.73;;
61391;SDS011;47261;52.892;5.738;2023-08-24T11:30:30;31.13;;;16.05;;
61391;SDS011;47261;52.892;5.738;2023-08-24T11:32:56;27.25;;;15.25;;
61391;SDS011;47261;52.892;5.738;2023-08-24T11:35:22;24.80;;;15.60;;
61391;SDS011;47261;52.892;5.738;2023-08-24T11:37:57;22.63;;;15.07;;
61391;SDS011;47261;52.892;5.738;2023-08-24T11:40:23;25.95;;;16.17;;
61391;SDS011;47261;52.892;5.738;2023-08-24T11:42:55;25.48;;;15.82;;
61391;SDS011;47261;52.892;5.738;2023-08-24T11:45:21;24.98;;;16.45;;
61391;SDS011;47261;52.892;5.738;2023-08-24T11:47:48;25.80;;;15.17;;
61391;SDS011;47261;52.892;5.738;2023-08-24T11:50:16;27.92;;;16.17;;
61391;SDS011;47261;52.892;5.738;2023-08-24T11:52:42;35.65;;;18.77;;
61391;SDS011;47261;52.892;5.738;2023-08-24T11:55:08;30.27;;;18.63;;
61391;SDS011;47261;52.892;5.738;2023-08-24T11:57:35;27.42;;;17.70;;
61391;SDS011;47261;52.892;5.738;2023-08-24T12:00:04;27.00;;;17.17;;
61391;SDS011;47261;52.892;5.738;2023-08-24T12:02:32;26.17;;;14.77;;
61391;SDS011;47261;52.892;5.738;2023-08-24T12:04:58;28.50;;;15.80;;
61391;SDS011;47261;52.892;5.738;2023-08-24T12:07:24;28.77;;;17.77;;
61391;SDS011;47261;52.892;5.738;2023-08-24T12:09:51;25.75;;;16.65;;
61391;SDS011;47261;52.892;5.738;2023-08-24T12:12:21;34.85;;;15.10;;
61391;SDS011;47261;52.892;5.738;2023-08-24T12:14:48;30.35;;;18.23;;
61391;SDS011;47261;52.892;5.738;2023-08-24T12:17:15;25.25;;;14.77;;
61391;SDS011;47261;52.892;5.738;2023-08-24T12:19:42;25.93;;;17.43;;
61391;SDS011;47261;52.892;5.738;2023-08-24T12:22:20;24.17;;;16.55;;
61391;SDS011;47261;52.892;5.738;2023-08-24T12:24:47;31.80;;;20.17;;
61391;SDS011;47261;52.892;5.738;2023-08-24T12:27:19;33.65;;;21.73;;
61391;SDS011;47261;52.892;5.738;2023-08-24T12:29:47;30.25;;;21.23;;
61391;SDS011;47261;52.892;5.738;2023-08-24T12:32:13;33.40;;;21.43;;
61391;SDS011;47261;52.892;5.738;2023-08-24T12:34:41;34.08;;;23.83;;
61391;SDS011;47261;52.892;5.738;2023-08-24T12:37:08;38.58;;;25.25;;
61391;SDS011;47261;52.892;5.738;2023-08-24T12:39:38;37.20;;;22.95;;
61391;SDS011;47261;52.892;5.738;2023-08-24T12:42:04;32.28;;;22.80;;
61391;SDS011;47261;52.892;5.738;2023-08-24T12:44:31;31.53;;;23.53;;
61391;SDS011;47261;52.892;5.738;2023-08-24T12:46:57;30.00;;;19.98;;
61391;SDS011;47261;52.892;5.738;2023-08-24T12:49:23;32.80;;;21.73;;
61391;SDS011;47261;52.892;5.738;2023-08-24T12:51:49;27.77;;;20.23;;
61391;SDS011;47261;52.892;5.738;2023-08-24T12:54:14;27.13;;;19.30;;
61391;SDS011;47261;52.892;5.738;2023-08-24T12:56:40;30.20;;;19.23;;
61391;SDS011;47261;52.892;5.738;2023-08-24T12:59:06;29.65;;;21.50;;
61391;SDS011;47261;52.892;5.738;2023-08-24T13:01:32;27.65;;;21.08;;
61391;SDS011;47261;52.892;5.738;2023-08-24T13:03:57;30.20;;;21.10;;
61391;SDS011;47261;52.892;5.738;2023-08-24T13:06:23;30.77;;;21.70;;
61391;SDS011;47261;52.892;5.738;2023-08-24T13:08:49;27.70;;;19.03;;
61391;SDS011;47261;52.892;5.738;2023-08-24T13:11:14;23.13;;;16.10;;
61391;SDS011;47261;52.892;5.738;2023-08-24T13:13:40;24.37;;;16.90;;
61391;SDS011;47261;52.892;5.738;2023-08-24T13:16:06;21.05;;;14.82;;
61391;SDS011;47261;52.892;5.738;2023-08-24T13:18:32;20.90;;;15.75;;
61391;SDS011;47261;52.892;5.738;2023-08-24T13:20:58;20.43;;;14.30;;
61391;SDS011;47261;52.892;5.738;2023-08-24T13:23:23;17.87;;;13.57;;
61391;SDS011;47261;52.892;5.738;2023-08-24T13:25:49;19.95;;;12.68;;
61391;SDS011;47261;52.892;5.738;2023-08-24T13:28:15;17.63;;;12.90;;
61391;SDS011;47261;52.892;5.738;2023-08-24T13:30:40;18.35;;;12.48;;
61391;SDS011;47261;52.892;5.738;2023-08-24T13:33:07;19.50;;;12.77;;
61391;SDS011;47261;52.892;5.738;2023-08-24T13:35:34;18.90;;;14.23;;
61391;SDS011;47261;52.892;5.738;2023-08-24T13:37:59;21.00;;;14.63;;
61391;SDS011;47261;52.892;5.738;2023-08-24T13:40:25;19.10;;;14.27;;
61391;SDS011;47261;52.892;5.738;2023-08-24T13:42:51;19.35;;;12.77;;
61391;SDS011;47261;52.892;5.738;2023-08-24T13:45:16;17.23;;;12.30;;
61391;SDS011;47261;52.892;5.738;2023-08-24T13:47:42;16.70;;;12.17;;
61391;SDS011;47261;52.892;5.738;2023-08-24T13:50:08;16.27;;;10.73;;
61391;SDS011;47261;52.892;5.738;2023-08-24T13:52:34;18.50;;;10.80;;
61391;SDS011;47261;52.892;5.738;2023-08-24T13:54:59;17.30;;;12.00;;
61391;SDS011;47261;52.892;5.738;2023-08-24T13:57:28;17.00;;;12.38;;
61391;SDS011;47261;52.892;5.738;2023-08-24T13:59:55;17.42;;;11.65;;
61391;SDS011;47261;52.892;5.738;2023-08-24T14:02:20;17.97;;;11.30;;
61391;SDS011;47261;52.892;5.738;2023-08-24T14:04:46;17.40;;;11.75;;
61391;SDS011;47261;52.892;5.738;2023-08-24T14:07:11;16.50;;;11.03;;
61391;SDS011;47261;52.892;5.738;2023-08-24T14:09:37;14.33;;;11.10;;
61391;SDS011;47261;52.892;5.738;2023-08-24T14:12:03;21.20;;;11.80;;
61391;SDS011;47261;52.892;5.738;2023-08-24T14:14:28;16.37;;;10.43;;
61391;SDS011;47261;52.892;5.738;2023-08-24T14:16:54;17.30;;;10.65;;
61391;SDS011;47261;52.892;5.738;2023-08-24T14:19:21;12.95;;;8.65;;
61391;SDS011;47261;52.892;5.738;2023-08-24T14:21:47;12.47;;;8.07;;
61391;SDS011;47261;52.892;5.738;2023-08-24T14:24:13;13.02;;;8.32;;
61391;SDS011;47261;52.892;5.738;2023-08-24T14:26:38;16.25;;;7.90;;
61391;SDS011;47261;52.892;5.738;2023-08-24T14:29:10;12.23;;;6.57;;
61391;SDS011;47261;52.892;5.738;2023-08-24T14:31:36;11.75;;;6.65;;
61391;SDS011;47261;52.892;5.738;2023-08-24T14:34:02;11.48;;;7.40;;
61391;SDS011;47261;52.892;5.738;2023-08-24T14:36:28;15.13;;;7.95;;
61391;SDS011;47261;52.892;5.738;2023-08-24T14:38:54;13.93;;;9.27;;
61391;SDS011;47261;52.892;5.738;2023-08-24T14:41:20;12.60;;;7.90;;
61391;SDS011;47261;52.892;5.738;2023-08-24T14:43:46;12.23;;;7.70;;
61391;SDS011;47261;52.892;5.738;2023-08-24T14:46:13;13.23;;;8.57;;